Time;durP1;ratioP1;P1;durP2;ratioP2;P2;SDS_P1;SDS_P2;PMS_P1;PMS_P2;Temp;Humidity;BMP_temperature;BMP_pressure;BME280_temperature;BME280_humidity;BME280_pressure;Samples;Min_cycle;Max_cycle;Signal;HPM_P1;HPM_P2
2021/09/14 00:00:21;;;;;;;;;6.25;6.00;;;;;21.34;58.98;100843.84;4910820;28;46074;-72
2021/09/14 00:02:48;;;;;;;;;5.00;4.75;;;;;21.31;59.57;100844.28;4921359;28;45489;-72
2021/09/14 00:05:13;;;;;;;;;5.00;5.00;;;;;21.31;59.46;100846.97;4911377;28;45804;-71
2021/09/14 00:07:38;;;;;;;;;6.50;5.00;;;;;21.31;59.44;100838.91;4908684;28;45566;-72
2021/09/14 00:10:06;;;;;;;;;7.00;6.00;;;;;21.31;60.18;100844.28;4911002;28;48020;-72
2021/09/14 00:12:31;;;;;;;;;5.75;5.25;;;;;21.27;59.96;100831.28;4908802;28;45941;-72
2021/09/14 00:14:57;;;;;;;;;5.25;5.25;;;;;21.24;59.84;100828.19;4914028;28;45356;-72
2021/09/14 00:17:22;;;;;;;;;5.00;5.00;;;;;21.18;59.69;100829.06;4928512;28;45643;-72
2021/09/14 00:19:47;;;;;;;;;5.50;5.50;;;;;21.13;60.97;100832.41;4918544;28;47290;-71
2021/09/14 00:22:13;;;;;;;;;5.25;5.25;;;;;21.08;60.50;100824.16;4918800;28;45435;-72
2021/09/14 00:24:38;;;;;;;;;6.00;5.00;;;;;21.01;60.88;100818.00;4918715;28;54626;-71
2021/09/14 00:27:04;;;;;;;;;6.00;6.00;;;;;20.98;60.44;100821.13;4922445;28;45483;-72
2021/09/14 00:29:29;;;;;;;;;7.00;6.00;;;;;20.96;60.19;100832.09;4920783;28;46470;-72
2021/09/14 00:31:55;;;;;;;;;5.50;5.50;;;;;20.95;60.76;100826.94;4920904;28;45673;-72
2021/09/14 00:34:20;;;;;;;;;7.75;6.75;;;;;20.95;60.63;100829.63;4913802;28;45593;-72
2021/09/14 00:36:45;;;;;;;;;6.75;6.00;;;;;20.91;60.71;100820.34;4910117;28;52975;-72
2021/09/14 00:39:11;;;;;;;;;7.00;6.75;;;;;20.88;60.96;100829.66;4921039;28;47327;-72
2021/09/14 00:41:36;;;;;;;;;10.00;7.25;;;;;20.81;61.12;100818.13;4919592;28;45655;-72
2021/09/14 00:44:03;;;;;;;;;7.00;7.00;;;;;20.76;61.38;100828.69;4908082;28;45985;-72
2021/09/14 00:46:30;;;;;;;;;8.00;7.00;;;;;20.70;61.81;100827.69;4908703;28;46082;-72
2021/09/14 00:48:55;;;;;;;;;10.00;9.00;;;;;20.66;61.82;100831.00;4910965;28;47331;-72
2021/09/14 00:51:21;;;;;;;;;6.25;6.00;;;;;20.61;61.78;100824.41;4921350;28;45477;-72
2021/09/14 00:53:48;;;;;;;;;7.00;6.50;;;;;20.58;62.22;100840.13;4906277;28;45681;-72
2021/09/14 00:56:15;;;;;;;;;10.50;7.75;;;;;20.54;62.47;100841.56;4924094;28;45595;-72
2021/09/14 00:58:40;;;;;;;;;9.75;6.50;;;;;20.52;62.96;100838.25;4915713;28;46363;-72
2021/09/14 01:01:06;;;;;;;;;7.00;5.25;;;;;20.46;62.90;100823.84;4919870;28;45517;-72
2021/09/14 01:03:31;;;;;;;;;7.50;7.50;;;;;20.43;63.23;100828.81;4925289;28;45507;-72
2021/09/14 01:05:57;;;;;;;;;7.00;7.00;;;;;20.39;63.27;100821.16;4910680;28;45442;-72
2021/09/14 01:08:23;;;;;;;;;10.00;7.00;;;;;20.37;63.37;100823.22;4931465;28;45560;-72
2021/09/14 01:10:48;;;;;;;;;7.00;7.00;;;;;20.40;63.34;100828.19;4918226;28;45515;-72
2021/09/14 01:13:14;;;;;;;;;6.00;6.00;;;;;20.44;63.44;100820.53;4916787;28;45540;-72
2021/09/14 01:15:39;;;;;;;;;6.00;6.00;;;;;20.47;63.40;100830.03;4927274;28;45564;-72
2021/09/14 01:18:05;;;;;;;;;5.50;5.25;;;;;20.50;63.14;100838.50;4927318;28;46273;-72
2021/09/14 01:20:31;;;;;;;;;4.00;4.00;;;;;20.52;62.89;100835.56;4926372;28;45463;-72
2021/09/14 01:22:56;;;;;;;;;7.00;6.50;;;;;20.54;63.56;100838.88;4926518;28;45545;-72
2021/09/14 01:25:23;;;;;;;;;6.75;6.75;;;;;20.55;63.63;100843.25;4915633;28;45546;-72
2021/09/14 01:27:50;;;;;;;;;8.00;8.00;;;;;20.56;63.90;100831.47;4913914;28;47090;-72
2021/09/14 01:30:20;;;;;;;;;7.50;6.00;;;;;20.57;62.93;100833.09;4913437;28;45594;-73
2021/09/14 01:32:49;;;;;;;;;8.50;8.00;;;;;20.57;63.24;100825.91;4923603;28;45477;-72
2021/09/14 01:35:18;;;;;;;;;8.50;6.25;;;;;20.59;63.21;100831.03;4930626;28;45463;-73
2021/09/14 01:37:44;;;;;;;;;7.25;7.00;;;;;20.59;63.69;100839.91;4915432;28;47977;-73
2021/09/14 01:40:10;;;;;;;;;10.75;8.50;;;;;20.60;63.10;100854.19;4917110;28;45574;-73
2021/09/14 01:42:36;;;;;;;;;8.75;8.00;;;;;20.60;62.99;100864.91;4923500;28;45594;-73
2021/09/14 01:45:03;;;;;;;;;8.00;7.00;;;;;20.59;63.30;100866.75;4927844;28;45643;-73
2021/09/14 01:47:28;;;;;;;;;8.00;7.00;;;;;20.58;63.40;100878.53;4909744;28;48069;-73
2021/09/14 01:49:54;;;;;;;;;4.50;4.00;;;;;20.55;63.57;100889.72;4925701;28;45478;-72
2021/09/14 01:52:19;;;;;;;;;9.25;8.50;;;;;20.56;63.83;100902.09;4917548;28;53983;-73
2021/09/14 01:54:45;;;;;;;;;7.75;6.75;;;;;20.58;63.58;100909.94;4916688;28;45567;-73
2021/09/14 01:57:10;;;;;;;;;7.00;7.00;;;;;20.60;64.06;100913.25;4911199;28;45653;-73
2021/09/14 01:59:37;;;;;;;;;8.00;8.00;;;;;20.61;63.40;100923.75;4912092;28;45435;-73
2021/09/14 02:04:38;;;;;;;;;10.25;7.75;;;;;20.61;63.61;100923.75;4924106;28;45508;-74
2021/09/14 02:58:39;;;;;;;;;10.00;8.75;;;;;20.10;68.03;100818.97;4927395;28;45557;-72
2021/09/14 03:01:10;;;;;;;;;11.25;9.75;;;;;20.11;70.42;100809.91;4930100;28;46171;-73
2021/09/14 03:03:38;;;;;;;;;12.25;9.75;;;;;20.02;72.06;100827.25;4927829;28;45582;-73
2021/09/14 03:06:03;;;;;;;;;8.00;8.00;;;;;19.92;71.33;100814.28;4929852;28;45639;-72
2021/09/14 03:08:29;;;;;;;;;9.75;9.00;;;;;19.81;70.03;100804.19;4935331;28;45406;-73
2021/09/14 03:10:54;;;;;;;;;9.00;8.75;;;;;19.78;69.67;100794.69;4930404;28;45812;-71
2021/09/14 03:13:20;;;;;;;;;9.00;9.00;;;;;19.77;69.91;100801.09;4930885;28;59798;-72
2021/09/14 03:15:45;;;;;;;;;7.50;7.50;;;;;19.80;70.00;100805.22;4924916;28;46188;-72
2021/09/14 03:18:11;;;;;;;;;9.00;9.00;;;;;19.81;69.71;100802.34;4909118;28;45626;-72
2021/09/14 03:20:36;;;;;;;;;9.50;8.00;;;;;19.81;70.13;100791.59;4907986;28;47164;-72
2021/09/14 03:23:02;;;;;;;;;9.00;9.00;;;;;19.81;70.51;100791.59;4923783;28;45510;-71
2021/09/14 03:25:28;;;;;;;;;8.00;8.00;;;;;19.81;70.36;100788.94;4912521;28;45593;-72
2021/09/14 03:27:53;;;;;;;;;8.00;7.75;;;;;19.81;70.55;100783.56;4909805;28;45588;-72
2021/09/14 03:30:19;;;;;;;;;11.50;10.25;;;;;19.83;70.97;100783.34;4907373;28;46100;-72
2021/09/14 03:32:44;;;;;;;;;8.50;8.50;;;;;19.82;70.80;100774.47;4906287;28;45857;-72
2021/09/14 03:35:10;;;;;;;;;9.75;8.75;;;;;19.82;70.64;100782.53;4911636;28;45494;-71
2021/09/14 03:37:35;;;;;;;;;9.25;8.00;;;;;19.82;70.57;100781.69;4909537;28;46068;-71
2021/09/14 03:40:01;;;;;;;;;9.25;8.00;;;;;19.82;71.29;100770.97;4910562;28;47020;-69
2021/09/14 03:42:26;;;;;;;;;11.50;10.00;;;;;19.82;71.06;100777.16;4907251;28;45850;-72
2021/09/14 03:44:51;;;;;;;;;10.50;9.50;;;;;19.79;73.41;100777.59;4923239;28;45461;-71
2021/09/14 03:47:17;;;;;;;;;10.75;9.00;;;;;19.72;71.52;100766.03;4922106;28;45578;-68
2021/09/14 03:49:42;;;;;;;;;12.25;9.75;;;;;19.64;72.87;100766.22;4925815;28;45959;-70
2021/09/14 03:52:07;;;;;;;;;7.50;7.50;;;;;19.54;71.63;100754.06;4908628;28;45509;-70
2021/09/14 03:54:33;;;;;;;;;7.00;6.75;;;;;19.52;71.82;100745.41;4908544;28;45991;-67
2021/09/14 03:56:58;;;;;;;;;8.50;8.50;;;;;19.52;71.42;100745.41;4912654;28;45525;-67
2021/09/14 03:59:25;;;;;;;;;9.50;8.75;;;;;19.53;71.40;100752.44;4917409;28;47185;-69
2021/09/14 04:01:53;;;;;;;;;9.75;8.00;;;;;19.52;71.77;100750.78;4915063;28;45572;-69
2021/09/14 04:04:24;;;;;;;;;12.75;9.00;;;;;19.53;71.53;100756.94;4909034;28;56093;-69
2021/09/14 04:06:57;;;;;;;;;9.00;9.00;;;;;19.52;71.43;100749.94;4908426;28;45606;-69
2021/09/14 04:09:23;;;;;;;;;9.50;9.00;;;;;19.52;71.49;100747.28;4907377;28;46092;-69
2021/09/14 04:11:50;;;;;;;;;8.25;8.00;;;;;19.55;71.29;100754.88;4904878;28;45725;-70
2021/09/14 04:14:16;;;;;;;;;12.25;10.25;;;;;19.56;71.30;100751.19;4918658;28;45735;-69
2021/09/14 04:16:41;;;;;;;;;8.75;8.75;;;;;19.58;71.59;100765.19;4922359;28;45434;-70
2021/09/14 04:19:07;;;;;;;;;9.75;9.75;;;;;19.58;71.72;100754.47;4914544;28;46204;-70
2021/09/14 04:21:32;;;;;;;;;12.00;11.00;;;;;19.60;71.42;100748.91;4907737;28;45542;-69
2021/09/14 04:23:57;;;;;;;;;9.00;9.00;;;;;19.60;72.03;100746.22;4919121;28;51359;-70
2021/09/14 04:26:23;;;;;;;;;10.00;9.75;;;;;19.59;71.63;100749.94;4911010;28;45626;-70
2021/09/14 04:28:48;;;;;;;;;9.00;9.00;;;;;19.59;71.73;100766.84;4915422;28;47514;-70
2021/09/14 04:31:14;;;;;;;;;9.25;8.75;;;;;19.61;72.07;100769.31;4933555;28;45388;-68
2021/09/14 04:33:39;;;;;;;;;10.00;10.00;;;;;19.60;72.77;100757.78;4913701;28;45482;-69
2021/09/14 04:36:04;;;;;;;;;11.25;9.00;;;;;19.61;72.57;100748.72;4908062;28;45413;-73
2021/09/14 04:38:30;;;;;;;;;9.25;8.75;;;;;19.62;72.67;100744.97;4918790;28;46996;-71
2021/09/14 04:40:55;;;;;;;;;9.00;8.00;;;;;19.63;72.43;100721.69;4926738;28;46129;-71
2021/09/14 04:43:22;;;;;;;;;9.75;9.75;;;;;19.65;72.68;100707.03;4921965;28;45539;-71
2021/09/14 04:45:48;;;;;;;;;12.00;10.25;;;;;19.66;73.14;100718.59;4928542;28;45497;-71
2021/09/14 04:48:14;;;;;;;;;11.50;10.75;;;;;19.60;75.25;100719.41;4926187;28;46214;-69
2021/09/14 04:50:39;;;;;;;;;11.25;11.25;;;;;19.51;75.13;100716.13;4930291;28;45657;-73
2021/09/14 04:53:05;;;;;;;;;9.00;9.00;;;;;19.39;74.30;100691.84;4924046;28;45824;-71
2021/09/14 04:55:30;;;;;;;;;11.25;11.25;;;;;19.32;74.55;100702.56;4927425;28;45548;-70
2021/09/14 04:57:55;;;;;;;;;10.00;9.00;;;;;19.27;75.96;100714.94;4911708;28;47042;-70
2021/09/14 05:00:21;;;;;;;;;12.25;11.00;;;;;19.21;79.16;100715.75;4915137;28;45518;-70
2021/09/14 05:02:46;;;;;;;;;8.00;7.50;;;;;19.13;78.09;100709.56;4918154;28;45905;-70
2021/09/14 05:05:11;;;;;;;;;12.50;12.50;;;;;19.07;77.39;100709.56;4913086;28;45778;-70
2021/09/14 05:07:37;;;;;;;;;10.50;10.50;;;;;19.03;76.65;100701.09;4915024;28;46853;-70
2021/09/14 05:10:03;;;;;;;;;14.25;12.00;;;;;19.00;76.91;100704.22;4917284;28;45587;-70
2021/09/14 05:12:28;;;;;;;;;13.25;12.25;;;;;18.97;77.68;100709.16;4915089;28;45458;-71
2021/09/14 05:14:53;;;;;;;;;12.00;11.50;;;;;18.94;78.17;100713.06;4915933;28;45417;-71
2021/09/14 05:17:19;;;;;;;;;11.75;11.50;;;;;18.92;77.66;100715.13;4925772;28;45429;-71
2021/09/14 05:19:45;;;;;;;;;13.75;11.50;;;;;18.92;79.83;100712.44;4912883;28;45391;-71
2021/09/14 05:22:12;;;;;;;;;15.00;12.25;;;;;18.88;78.71;100724.59;4911070;28;53589;-71
2021/09/14 05:24:38;;;;;;;;;10.25;10.25;;;;;18.85;78.69;100723.16;4913337;28;45688;-72
2021/09/14 05:27:04;;;;;;;;;14.25;12.75;;;;;18.86;78.26;100723.97;4912671;28;46227;-69
2021/09/14 05:29:29;;;;;;;;;13.00;11.50;;;;;18.87;79.26;100728.31;4905685;28;45424;-69
2021/09/14 05:31:55;;;;;;;;;10.75;10.25;;;;;18.86;81.41;100758.78;4914792;28;45708;-74
2021/09/14 05:34:22;;;;;;;;;10.50;9.00;;;;;18.84;78.57;100769.72;4919094;28;46192;-68
2021/09/14 05:36:48;;;;;;;;;10.50;8.25;;;;;18.83;80.12;100777.94;4913372;28;47390;-67
2021/09/14 05:39:13;;;;;;;;;8.75;8.00;;;;;18.84;79.08;100787.59;4918244;28;45674;-68
2021/09/14 05:41:39;;;;;;;;;8.25;8.25;;;;;18.85;78.23;100794.63;4918592;28;45701;-68
2021/09/14 05:44:05;;;;;;;;;10.25;10.25;;;;;18.86;78.53;100793.56;4924548;28;45594;-69
2021/09/14 05:46:30;;;;;;;;;13.50;10.25;;;;;18.87;78.04;100803.28;4920710;28;46204;-69
2021/09/14 05:48:56;;;;;;;;;11.75;9.75;;;;;18.89;77.56;100793.16;4927814;28;45406;-69
2021/09/14 05:51:21;;;;;;;;;11.25;8.50;;;;;18.92;78.54;100814.22;4918786;28;45717;-70
2021/09/14 05:53:46;;;;;;;;;10.50;8.00;;;;;18.91;78.33;100812.53;4921199;28;45486;-69
2021/09/14 05:56:12;;;;;;;;;11.00;9.25;;;;;18.90;79.45;100837.69;4913844;28;46056;-69
2021/09/14 05:58:37;;;;;;;;;9.00;8.75;;;;;18.87;78.96;100844.28;4930622;28;45828;-70
2021/09/14 06:01:03;;;;;;;;;9.50;8.00;;;;;18.86;79.90;100847.13;4948931;28;45499;-68
2021/09/14 06:03:29;;;;;;;;;11.00;10.00;;;;;18.85;82.39;100850.84;4923101;28;45520;-69
2021/09/14 06:05:56;;;;;;;;;14.25;12.00;;;;;18.85;80.35;100856.22;4915338;28;46970;-71
2021/09/14 06:08:22;;;;;;;;;10.00;9.50;;;;;18.84;82.33;100849.19;4926959;28;45561;-70
2021/09/14 06:10:47;;;;;;;;;11.00;10.00;;;;;18.85;80.18;100845.50;4920867;28;45990;-71
2021/09/14 06:13:13;;;;;;;;;12.75;11.75;;;;;18.85;82.55;100851.66;4915358;28;45879;-70
2021/09/14 06:15:39;;;;;;;;;15.50;14.75;;;;;18.85;82.49;100859.69;4930248;28;46259;-71
2021/09/14 06:18:05;;;;;;;;;13.25;12.75;;;;;18.86;81.59;100865.88;4922162;28;45937;-70
2021/09/14 06:20:30;;;;;;;;;15.00;12.00;;;;;18.89;80.81;100878.84;4916900;28;45628;-68
2021/09/14 06:22:55;;;;;;;;;12.75;11.25;;;;;18.91;80.95;100877.63;4913478;28;45793;-70
2021/09/14 06:25:21;;;;;;;;;18.00;13.75;;;;;18.95;80.21;100887.97;4921432;28;45785;-71
2021/09/14 06:27:46;;;;;;;;;18.50;13.50;;;;;18.99;80.21;100890.03;4921317;28;45419;-71
2021/09/14 06:30:12;;;;;;;;;15.50;14.50;;;;;19.03;80.61;100891.28;4919837;28;45473;-70
2021/09/14 06:32:37;;;;;;;;;12.00;12.00;;;;;19.08;79.08;100882.63;4916663;28;45458;-71
2021/09/14 06:35:03;;;;;;;;;12.25;11.50;;;;;19.11;80.14;100883.06;4919034;28;48537;-72
2021/09/14 06:37:28;;;;;;;;;12.00;11.75;;;;;19.15;80.37;100877.31;4921418;28;46770;-70
2021/09/14 06:39:53;;;;;;;;;10.00;10.00;;;;;19.19;81.15;100879.38;4927896;28;45668;-70
2021/09/14 06:42:19;;;;;;;;;10.00;9.75;;;;;19.19;81.26;100883.91;4927625;28;45829;-70
2021/09/14 06:44:44;;;;;;;;;13.25;11.75;;;;;19.13;82.08;100875.63;4924813;28;46396;-70
2021/09/14 06:47:10;;;;;;;;;13.75;13.75;;;;;19.04;84.86;100878.69;4927920;28;45495;-70
2021/09/14 06:49:35;;;;;;;;;13.25;11.50;;;;;18.91;86.97;100887.53;4926977;28;45586;-70
2021/09/14 06:52:00;;;;;;;;;14.25;12.25;;;;;18.78;89.68;100898.19;4919897;28;46105;-70
2021/09/14 06:54:26;;;;;;;;;17.00;13.25;;;;;18.65;90.56;100893.56;4917046;28;47035;-70
2021/09/14 06:56:51;;;;;;;;;12.00;10.00;;;;;18.60;92.80;100886.13;4920713;28;56878;-70
2021/09/14 06:59:16;;;;;;;;;14.00;12.50;;;;;18.55;92.63;100891.25;4923588;28;45540;-70
2021/09/14 07:01:42;;;;;;;;;15.50;13.50;;;;;18.51;93.95;100913.25;4933287;28;45798;-72
2021/09/14 07:04:08;;;;;;;;;20.75;15.75;;;;;18.41;93.83;100913.59;4918262;28;46081;-71
2021/09/14 07:06:33;;;;;;;;;21.00;16.50;;;;;18.39;94.53;100934.38;4919660;28;45977;-70
2021/09/14 07:08:58;;;;;;;;;19.50;16.25;;;;;18.42;95.13;100932.16;4929221;28;45663;-70
2021/09/14 07:11:24;;;;;;;;;15.50;13.75;;;;;18.46;95.76;100917.34;4927701;28;45446;-68
2021/09/14 07:13:49;;;;;;;;;17.75;17.50;;;;;18.50;95.56;100911.63;4923515;28;47475;-69
2021/09/14 07:16:15;;;;;;;;;19.50;16.75;;;;;18.54;95.15;100911.00;4925404;28;45868;-70
2021/09/14 07:18:41;;;;;;;;;21.00;20.75;;;;;18.59;93.82;100895.16;4927891;28;45509;-69
2021/09/14 07:21:07;;;;;;;;;25.00;20.50;;;;;18.59;93.85;100876.44;4925090;28;45630;-70
2021/09/14 07:23:33;;;;;;;;;27.50;20.25;;;;;18.62;93.76;100868.03;4924660;28;47981;-69
2021/09/14 07:25:59;;;;;;;;;20.50;18.50;;;;;18.64;93.98;100855.28;4943682;28;45614;-68
2021/09/14 07:28:24;;;;;;;;;23.25;18.50;;;;;18.65;93.92;100846.22;4928671;28;45660;-68
2021/09/14 07:30:50;;;;;;;;;20.75;16.00;;;;;18.65;94.22;100846.22;4928512;28;45591;-67
2021/09/14 07:33:16;;;;;;;;;12.25;11.75;;;;;18.63;93.92;100847.44;4920132;28;46948;-67
2021/09/14 07:35:42;;;;;;;;;14.25;12.50;;;;;18.66;94.07;100847.03;4928797;28;45557;-67
2021/09/14 07:38:08;;;;;;;;;11.25;10.75;;;;;18.69;94.01;100847.47;4922096;28;46133;-68
2021/09/14 07:40:33;;;;;;;;;16.00;12.50;;;;;18.76;94.24;100857.41;4927790;28;46594;-69
2021/09/14 07:42:59;;;;;;;;;13.00;11.75;;;;;18.82;94.30;100843.22;4925098;28;46189;-69
2021/09/14 07:45:24;;;;;;;;;10.25;9.00;;;;;18.88;94.46;100818.31;4924858;28;45463;-69
2021/09/14 07:47:50;;;;;;;;;15.00;14.00;;;;;18.93;94.30;100815.84;4916169;28;45581;-69
2021/09/14 07:50:16;;;;;;;;;12.50;11.50;;;;;18.97;93.98;100827.81;4919247;28;45561;-69
2021/09/14 07:52:42;;;;;;;;;16.00;13.75;;;;;18.98;94.08;100820.59;4925863;28;45490;-69
2021/09/14 07:55:08;;;;;;;;;14.75;11.75;;;;;18.99;93.90;100827.59;4925614;28;45473;-68
2021/09/14 07:57:34;;;;;;;;;11.50;10.25;;;;;19.01;94.12;100833.59;4929406;28;45473;-69
2021/09/14 07:59:59;;;;;;;;;10.00;9.75;;;;;19.05;94.23;100837.50;4923432;28;45442;-69
2021/09/14 08:02:25;;;;;;;;;11.00;9.75;;;;;19.09;94.45;100839.59;4940773;28;46237;-69
2021/09/14 08:04:51;;;;;;;;;13.25;9.50;;;;;19.19;94.84;100843.72;4925225;28;45645;-69
2021/09/14 08:07:17;;;;;;;;;14.50;10.25;;;;;19.31;94.51;100850.13;4919484;28;45774;-69
2021/09/14 08:09:42;;;;;;;;;11.25;9.50;;;;;19.51;93.75;100842.94;4932242;28;45522;-69
2021/09/14 08:12:08;;;;;;;;;13.50;12.00;;;;;19.71;92.46;100852.88;4923204;28;47164;-69
2021/09/14 08:14:33;;;;;;;;;10.25;8.75;;;;;19.85;90.67;100854.50;4931844;28;45396;-69
2021/09/14 08:16:59;;;;;;;;;12.75;9.00;;;;;19.84;89.36;100860.91;4931502;28;45702;-69
2021/09/14 08:19:24;;;;;;;;;14.50;10.75;;;;;19.88;88.51;100862.16;4928792;28;45437;-69
2021/09/14 08:21:50;;;;;;;;;17.00;11.50;;;;;19.95;88.98;100870.19;4935491;28;47235;-69
2021/09/14 08:24:15;;;;;;;;;16.25;14.50;;;;;20.06;89.45;100866.06;4926167;28;45578;-69
2021/09/14 08:26:41;;;;;;;;;18.00;14.00;;;;;20.16;88.13;100871.81;4933454;28;55905;-69
2021/09/14 08:29:07;;;;;;;;;11.25;10.75;;;;;20.17;88.07;100876.13;4926751;28;45732;-69
2021/09/14 08:31:33;;;;;;;;;15.75;15.25;;;;;20.19;87.96;100868.72;4927854;28;46189;-69
2021/09/14 08:33:59;;;;;;;;;15.00;14.00;;;;;20.28;87.37;100867.47;4939393;28;45541;-68
2021/09/14 08:36:25;;;;;;;;;14.75;11.50;;;;;20.41;87.55;100867.41;4920813;28;46014;-69
2021/09/14 08:38:51;;;;;;;;;13.00;13.00;;;;;20.55;86.64;100864.75;4922112;28;45781;-69
2021/09/14 08:41:18;;;;;;;;;14.75;13.50;;;;;20.82;86.49;100862.75;4925708;28;46060;-69
2021/09/14 08:43:47;;;;;;;;;17.75;14.75;;;;;21.07;86.40;100878.13;4928687;28;45608;-67
2021/09/14 08:46:15;;;;;;;;;13.00;10.00;;;;;21.22;84.38;100878.66;4930597;28;45815;-67
2021/09/14 08:48:40;;;;;;;;;15.00;11.75;;;;;21.25;83.73;100887.13;4919348;28;45617;-66
2021/09/14 08:51:07;;;;;;;;;16.75;13.75;;;;;21.30;82.84;100883.78;4924860;28;47119;-67
2021/09/14 08:53:34;;;;;;;;;14.50;13.25;;;;;21.32;83.07;100888.94;4922848;28;46000;-66
2021/09/14 08:56:05;;;;;;;;;13.50;13.25;;;;;21.31;83.41;100887.28;4926347;28;45854;-66
2021/09/14 08:58:31;;;;;;;;;16.00;14.00;;;;;21.36;82.61;100895.53;4929078;28;45634;-66
2021/09/14 09:00:57;;;;;;;;;16.25;14.00;;;;;21.37;81.80;100902.56;4926573;28;47022;-66
2021/09/14 09:03:30;;;;;;;;;11.25;11.00;;;;;21.39;82.59;100906.72;4919738;28;46519;-66
2021/09/14 09:05:59;;;;;;;;;14.00;12.00;;;;;21.43;82.49;100915.97;4919581;28;45870;-66
2021/09/14 09:08:30;;;;;;;;;15.75;14.75;;;;;21.51;82.11;100906.00;4924354;28;45605;-66
2021/09/14 09:11:09;;;;;;;;;15.75;14.75;;;;;21.67;82.13;100909.00;4924064;28;46142;-67
2021/09/14 09:13:44;;;;;;;;;12.00;11.25;;;;;21.83;81.84;100910.31;4921173;28;45873;-68
2021/09/14 09:16:27;;;;;;;;;12.75;10.50;;;;;21.87;80.11;100911.53;4923052;28;45520;-68
2021/09/14 09:18:54;;;;;;;;;13.75;12.25;;;;;21.86;80.35;100912.56;4921114;28;48168;-68
2021/09/14 09:21:33;;;;;;;;;14.00;13.25;;;;;21.93;80.68;100909.81;4925084;28;46257;-68
2021/09/14 09:24:01;;;;;;;;;11.50;10.00;;;;;22.06;80.47;100909.72;4923172;28;45622;-68
2021/09/14 09:26:37;;;;;;;;;10.50;9.25;;;;;22.08;79.37;100902.25;4927876;28;45980;-68
2021/09/14 09:29:05;;;;;;;;;15.75;12.25;;;;;22.08;79.57;100904.09;4929038;28;46067;-68
2021/09/14 09:31:32;;;;;;;;;13.00;13.00;;;;;22.06;79.38;100906.19;4930079;28;46143;-68
2021/09/14 09:34:05;;;;;;;;;12.75;12.75;;;;;22.00;80.35;100901.69;4925868;28;45672;-68
2021/09/14 09:36:34;;;;;;;;;14.25;12.25;;;;;21.99;81.24;100906.25;4920588;28;46293;-68
2021/09/14 09:39:14;;;;;;;;;11.25;11.25;;;;;22.04;81.08;100900.22;4926014;28;45846;-68
2021/09/14 09:41:50;;;;;;;;;11.50;8.25;;;;;22.11;80.43;100909.88;4922037;28;46574;-70
2021/09/14 09:44:16;;;;;;;;;13.00;11.25;;;;;22.18;80.07;100907.13;4931456;28;45580;-68
2021/09/14 09:46:41;;;;;;;;;14.00;12.00;;;;;22.31;80.22;100898.13;4944124;28;45553;-66
2021/09/14 09:49:09;;;;;;;;;13.75;11.00;;;;;22.35;79.49;100893.91;4920538;28;45491;-66
2021/09/14 09:51:37;;;;;;;;;14.25;13.75;;;;;22.53;79.93;100901.19;4930090;28;45629;-67
2021/09/14 09:54:03;;;;;;;;;15.50;13.25;;;;;22.61;78.09;100892.81;4934290;28;45546;-65
2021/09/14 09:56:29;;;;;;;;;14.00;13.50;;;;;22.63;78.06;100889.91;4934422;28;45765;-66
2021/09/14 09:58:55;;;;;;;;;17.00;12.75;;;;;22.64;78.34;100886.97;4924229;28;45720;-67
2021/09/14 10:01:23;;;;;;;;;72.75;56.75;;;;;22.66;77.72;100882.19;4920793;28;45673;-66
2021/09/14 10:04:11;;;;;;;;;14.00;14.00;;;;;22.81;77.74;100881.78;4916874;28;45624;-66
2021/09/14 10:06:40;;;;;;;;;14.75;14.75;;;;;23.05;76.42;100871.16;4946788;28;46853;-69
2021/09/14 10:09:06;;;;;;;;;21.25;16.50;;;;;23.25;76.35;100876.28;4925791;28;45729;-66
2021/09/14 10:11:33;;;;;;;;;27.75;24.00;;;;;23.26;74.60;100884.13;4925257;28;46285;-67
2021/09/14 10:14:14;;;;;;;;;23.25;21.00;;;;;23.26;75.38;100892.19;4926508;28;46041;-68
2021/09/14 10:16:45;;;;;;;;;19.00;15.75;;;;;23.37;75.12;100891.44;4925606;28;46051;-69
2021/09/14 10:19:15;;;;;;;;;25.00;23.00;;;;;23.50;74.86;100879.59;4931453;28;45979;-71
2021/09/14 10:21:42;;;;;;;;;47.00;37.75;;;;;23.70;75.03;100873.88;4922955;28;45935;-70
2021/09/14 10:24:20;;;;;;;;;19.00;16.50;;;;;23.87;73.91;100878.63;4918811;28;46154;-68
2021/09/14 10:26:45;;;;;;;;;16.00;13.75;;;;;23.82;72.82;100873.94;4917910;28;45525;-71
2021/09/14 10:29:16;;;;;;;;;15.50;14.25;;;;;23.80;73.49;100874.16;4927268;28;45575;-70
2021/09/14 10:31:42;;;;;;;;;16.75;14.00;;;;;23.95;73.73;100876.41;4920396;28;45991;-70
2021/09/14 10:34:12;;;;;;;;;14.25;12.25;;;;;24.24;73.64;100879.22;4930425;28;45693;-73
2021/09/14 10:36:41;;;;;;;;;13.50;10.00;;;;;24.57;70.59;100881.28;4928028;28;45518;-73
2021/09/14 10:39:22;;;;;;;;;12.00;11.25;;;;;25.00;71.78;100880.00;4907691;28;45734;-72
2021/09/14 10:41:52;;;;;;;;;11.25;10.50;;;;;25.51;67.72;100883.63;4925544;28;46411;-72
2021/09/14 10:44:26;;;;;;;;;14.75;12.50;;;;;25.90;68.78;100886.44;4928021;28;45588;-72
2021/09/14 10:47:07;;;;;;;;;12.25;11.00;;;;;26.26;65.10;100880.72;4925537;28;45517;-73
2021/09/14 10:49:59;;;;;;;;;12.75;12.50;;;;;26.67;65.87;100882.09;4924720;28;45643;-72
2021/09/14 10:52:40;;;;;;;;;11.25;11.25;;;;;27.03;64.84;100885.22;4920887;28;46369;-72
2021/09/14 10:55:12;;;;;;;;;12.50;12.50;;;;;27.37;63.98;100885.00;4926541;28;46035;-74
2021/09/14 10:57:43;;;;;;;;;12.00;12.00;;;;;27.56;63.44;100880.03;4932243;28;45463;-73
2021/09/14 11:00:16;;;;;;;;;12.75;11.00;;;;;27.91;63.21;100875.97;4931970;28;45624;-73
2021/09/14 11:02:53;;;;;;;;;12.25;11.00;;;;;28.35;62.60;100876.50;4912211;28;45616;-73
2021/09/14 11:05:19;;;;;;;;;11.00;9.75;;;;;28.77;61.76;100872.88;4925436;28;45498;-68
2021/09/14 11:07:44;;;;;;;;;10.25;9.50;;;;;29.22;59.16;100862.38;4932100;28;45524;-71
2021/09/14 11:10:11;;;;;;;;;12.00;9.75;;;;;29.50;59.74;100861.88;4924782;28;45447;-71
2021/09/14 11:12:37;;;;;;;;;12.00;10.50;;;;;29.56;57.05;100868.13;4928480;28;45632;-71
2021/09/14 11:15:03;;;;;;;;;12.25;9.00;;;;;29.83;58.27;100859.69;4928749;28;45414;-72
2021/09/14 11:17:33;;;;;;;;;9.75;9.50;;;;;30.27;49.42;100860.94;4930994;28;45657;-72
2021/09/14 11:20:19;;;;;;;;;10.50;8.75;;;;;30.33;52.20;100860.66;4924936;28;46007;-71
2021/09/14 11:22:47;;;;;;;;;9.50;9.00;;;;;30.25;54.00;100863.97;4927374;28;46626;-71
2021/09/14 11:25:19;;;;;;;;;10.75;9.00;;;;;30.39;53.31;100865.00;4928944;28;45940;-71
2021/09/14 11:27:54;;;;;;;;;9.00;9.00;;;;;30.51;53.32;100861.94;4930427;28;45871;-74
2021/09/14 11:30:20;;;;;;;;;8.50;8.00;;;;;30.48;49.08;100870.69;4925292;28;45584;-72
2021/09/14 11:32:47;;;;;;;;;8.25;8.25;;;;;30.67;53.69;100876.31;4926522;28;47101;-74
2021/09/14 11:35:13;;;;;;;;;7.00;7.00;;;;;31.23;53.29;100869.72;4925241;28;46023;-72
2021/09/14 11:37:38;;;;;;;;;7.25;7.00;;;;;31.90;53.38;100876.28;4924819;28;45569;-73
2021/09/14 11:40:04;;;;;;;;;11.00;8.75;;;;;32.39;50.53;100860.69;4927821;28;45638;-73
2021/09/14 11:42:31;;;;;;;;;9.50;9.00;;;;;32.59;48.52;100870.59;4940813;28;48190;-72
2021/09/14 11:45:01;;;;;;;;;9.50;8.00;;;;;32.40;49.06;100867.00;4926672;28;45450;-72
2021/09/14 11:47:27;;;;;;;;;10.50;8.00;;;;;32.38;48.91;100861.00;4927284;28;45744;-73
2021/09/14 11:49:52;;;;;;;;;8.75;7.50;;;;;32.56;48.77;100868.44;4920358;28;45643;-72
2021/09/14 11:52:18;;;;;;;;;7.75;7.75;;;;;32.83;47.48;100864.25;4923780;28;46870;-73
2021/09/14 11:54:44;;;;;;;;;9.25;9.00;;;;;32.96;46.84;100869.81;4922164;28;53373;-72
2021/09/14 11:57:16;;;;;;;;;7.25;7.00;;;;;33.05;42.05;100867.22;4925665;28;45634;-73
2021/09/14 11:59:41;;;;;;;;;8.00;6.75;;;;;32.78;45.55;100857.75;4917531;28;45560;-72
2021/09/14 12:02:06;;;;;;;;;8.50;7.00;;;;;32.39;45.41;100859.88;4924343;28;47124;-71
2021/09/14 12:04:32;;;;;;;;;8.50;7.00;;;;;31.93;45.66;100858.47;4924726;28;45565;-71
2021/09/14 12:07:01;;;;;;;;;7.75;7.75;;;;;31.45;47.47;100864.69;4930357;28;45534;-71
2021/09/14 12:09:28;;;;;;;;;9.25;6.25;;;;;31.09;47.53;100866.03;4909416;28;45434;-71